sensor_id;sensor_type;location;lat;lon;timestamp;pressure;altitude;pressure_sealevel;temperature;humidity
4745;BME280;2386;42.138;24.746;2023-09-19T03:33:57;99968.50;;;18.71;78.51
4745;BME280;2386;42.138;24.746;2023-09-19T03:36:22;99971.81;;;18.63;77.71
4745;BME280;2386;42.138;24.746;2023-09-19T03:38:48;99961.09;;;18.66;77.21
4745;BME280;2386;42.138;24.746;2023-09-19T03:41:13;99963.84;;;18.61;77.87
4745;BME280;2386;42.138;24.746;2023-09-19T03:43:42;99974.28;;;18.44;79.82
4745;BME280;2386;42.138;24.746;2023-09-19T03:46:07;99970.72;;;18.44;79.95
4745;BME280;2386;42.138;24.746;2023-09-19T03:48:33;99978.13;;;18.33;80.63
4745;BME280;2386;42.138;24.746;2023-09-19T03:54:03;99974.53;;;18.17;81.64
4745;BME280;2386;42.138;24.746;2023-09-19T03:56:29;99976.47;;;18.27;81.24
4745;BME280;2386;42.138;24.746;2023-09-19T03:58:54;99984.69;;;18.17;82.02
4745;BME280;2386;42.138;24.746;2023-09-19T04:01:20;99983.81;;;18.06;82.49
4745;BME280;2386;42.138;24.746;2023-09-19T04:03:45;99982.44;;;17.98;83.29
4745;BME280;2386;42.138;24.746;2023-09-19T04:06:15;99986.00;;;17.94;83.04
4745;BME280;2386;42.138;24.746;2023-09-19T04:08:41;99984.91;;;17.95;82.28
4745;BME280;2386;42.138;24.746;2023-09-19T04:11:08;99982.66;;;17.71;84.76
4745;BME280;2386;42.138;24.746;2023-09-19T04:13:33;99969.50;;;17.73;84.91
4745;BME280;2386;42.138;24.746;2023-09-19T04:19:20;99983.50;;;17.77;85.24
4745;BME280;2386;42.138;24.746;2023-09-19T04:21:47;99988.19;;;17.82;85.34
4745;BME280;2386;42.138;24.746;2023-09-19T04:24:12;99982.09;;;17.69;87.28
4745;BME280;2386;42.138;24.746;2023-09-19T04:26:38;99985.94;;;17.73;86.88
4745;BME280;2386;42.138;24.746;2023-09-19T04:29:04;99979.56;;;17.63;87.64
4745;BME280;2386;42.138;24.746;2023-09-19T04:31:31;99986.25;;;17.77;86.93
4745;BME280;2386;42.138;24.746;2023-09-19T04:33:57;99990.31;;;17.69;87.16
4745;BME280;2386;42.138;24.746;2023-09-19T04:36:24;99985.09;;;17.68;87.61
4745;BME280;2386;42.138;24.746;2023-09-19T04:38:49;99988.97;;;17.72;87.10
4745;BME280;2386;42.138;24.746;2023-09-19T04:41:15;99988.69;;;17.68;87.24
4745;BME280;2386;42.138;24.746;2023-09-19T04:43:41;99974.97;;;17.73;87.92
4745;BME280;2386;42.138;24.746;2023-09-19T04:46:06;99989.81;;;17.88;84.76
4745;BME280;2386;42.138;24.746;2023-09-19T04:48:32;99984.06;;;17.89;85.39
4745;BME280;2386;42.138;24.746;2023-09-19T04:50:59;99989.25;;;17.76;86.42
4745;BME280;2386;42.138;24.746;2023-09-19T04:53:25;99988.13;;;17.71;86.40
4745;BME280;2386;42.138;24.746;2023-09-19T04:55:51;99988.19;;;17.82;87.89
4745;BME280;2386;42.138;24.746;2023-09-19T04:58:18;99971.97;;;17.90;85.07
4745;BME280;2386;42.138;24.746;2023-09-19T05:00:45;99981.56;;;17.88;85.58
4745;BME280;2386;42.138;24.746;2023-09-19T05:03:10;99977.75;;;17.89;84.47
4745;BME280;2386;42.138;24.746;2023-09-19T05:05:35;99986.81;;;17.94;84.29
4745;BME280;2386;42.138;24.746;2023-09-19T05:08:04;99982.69;;;17.92;83.99
4745;BME280;2386;42.138;24.746;2023-09-19T05:10:31;99978.03;;;17.92;84.37
4745;BME280;2386;42.138;24.746;2023-09-19T05:12:57;99985.69;;;17.90;83.28
4745;BME280;2386;42.138;24.746;2023-09-19T05:15:22;99984.06;;;17.89;81.84
4745;BME280;2386;42.138;24.746;2023-09-19T05:17:51;99991.50;;;18.04;83.10
4745;BME280;2386;42.138;24.746;2023-09-19T05:20:19;99981.63;;;18.08;83.12
4745;BME280;2386;42.138;24.746;2023-09-19T05:23:04;99994.84;;;18.26;82.23
4745;BME280;2386;42.138;24.746;2023-09-19T05:25:33;99979.19;;;18.22;81.45
4745;BME280;2386;42.138;24.746;2023-09-19T05:28:03;99982.22;;;18.25;80.21
4745;BME280;2386;42.138;24.746;2023-09-19T05:30:29;99984.41;;;18.23;80.32
4745;BME280;2386;42.138;24.746;2023-09-19T05:32:54;99985.25;;;18.24;81.15
4745;BME280;2386;42.138;24.746;2023-09-19T05:35:20;99990.44;;;18.15;80.65
4745;BME280;2386;42.138;24.746;2023-09-19T05:37:47;99989.34;;;18.21;81.48
4745;BME280;2386;42.138;24.746;2023-09-19T05:40:17;100001.44;;;18.25;81.09
4745;BME280;2386;42.138;24.746;2023-09-19T05:42:42;100004.75;;;18.32;79.94
4745;BME280;2386;42.138;24.746;2023-09-19T05:45:09;99996.22;;;18.24;80.24
4745;BME280;2386;42.138;24.746;2023-09-19T05:47:39;100004.75;;;18.27;81.02
4745;BME280;2386;42.138;24.746;2023-09-19T05:50:06;100016.31;;;18.39;81.64
4745;BME280;2386;42.138;24.746;2023-09-19T05:52:33;100000.63;;;18.35;80.71
4745;BME280;2386;42.138;24.746;2023-09-19T05:54:58;100003.41;;;18.45;81.03
4745;BME280;2386;42.138;24.746;2023-09-19T05:57:23;99996.53;;;18.48;80.30
4745;BME280;2386;42.138;24.746;2023-09-19T05:59:49;100010.28;;;18.43;80.97
4745;BME280;2386;42.138;24.746;2023-09-19T06:02:15;99994.34;;;18.55;80.18
4745;BME280;2386;42.138;24.746;2023-09-19T06:04:41;99983.91;;;18.57;81.03
4745;BME280;2386;42.138;24.746;2023-09-19T06:07:07;99986.38;;;18.74;80.02
4745;BME280;2386;42.138;24.746;2023-09-19T06:10:04;99981.69;;;18.89;80.43
4745;BME280;2386;42.138;24.746;2023-09-19T06:12:37;99979.22;;;18.98;78.84
4745;BME280;2386;42.138;24.746;2023-09-19T06:15:04;99970.94;;;19.13;78.31
4745;BME280;2386;42.138;24.746;2023-09-19T06:17:31;99969.00;;;19.24;78.06
4745;BME280;2386;42.138;24.746;2023-09-19T06:19:56;99985.69;;;19.43;77.69
4745;BME280;2386;42.138;24.746;2023-09-19T06:22:22;99982.94;;;19.53;75.79
4745;BME280;2386;42.138;24.746;2023-09-19T06:24:49;99971.34;;;19.61;75.56
4745;BME280;2386;42.138;24.746;2023-09-19T06:27:15;99980.41;;;19.66;75.62
4745;BME280;2386;42.138;24.746;2023-09-19T06:29:40;99982.06;;;19.67;76.32
4745;BME280;2386;42.138;24.746;2023-09-19T06:32:09;99985.59;;;19.73;76.43
4745;BME280;2386;42.138;24.746;2023-09-19T06:34:35;99975.97;;;19.76;76.96
4745;BME280;2386;42.138;24.746;2023-09-19T06:37:04;99973.22;;;19.76;76.81
4745;BME280;2386;42.138;24.746;2023-09-19T06:39:31;99963.84;;;19.77;77.00
4745;BME280;2386;42.138;24.746;2023-09-19T06:41:57;99962.41;;;19.89;77.88
4745;BME280;2386;42.138;24.746;2023-09-19T06:44:23;99961.59;;;19.89;77.26
4745;BME280;2386;42.138;24.746;2023-09-19T06:46:50;99970.06;;;19.97;77.70
4745;BME280;2386;42.138;24.746;2023-09-19T06:49:17;99965.97;;;19.95;77.11
4745;BME280;2386;42.138;24.746;2023-09-19T06:51:42;99958.22;;;19.97;78.23
4745;BME280;2386;42.138;24.746;2023-09-19T06:54:11;99968.56;;;20.15;77.24
4745;BME280;2386;42.138;24.746;2023-09-19T06:56:37;99968.00;;;20.18;77.54
4745;BME280;2386;42.138;24.746;2023-09-19T06:59:02;99980.06;;;20.27;77.52
4745;BME280;2386;42.138;24.746;2023-09-19T07:01:31;99963.53;;;20.27;77.33
4745;BME280;2386;42.138;24.746;2023-09-19T07:03:58;99960.59;;;20.14;77.67
4745;BME280;2386;42.138;24.746;2023-09-19T07:06:24;99965.19;;;20.23;77.72
4745;BME280;2386;42.138;24.746;2023-09-19T07:08:49;99960.22;;;20.25;76.31
4745;BME280;2386;42.138;24.746;2023-09-19T07:11:15;99960.41;;;20.44;76.17
4745;BME280;2386;42.138;24.746;2023-09-19T07:13:41;99970.84;;;20.47;76.39
4745;BME280;2386;42.138;24.746;2023-09-19T07:16:06;99952.38;;;20.48;76.34
4745;BME280;2386;42.138;24.746;2023-09-19T07:18:33;99958.97;;;20.52;76.43
4745;BME280;2386;42.138;24.746;2023-09-19T07:20:58;99955.91;;;20.53;75.70
4745;BME280;2386;42.138;24.746;2023-09-19T07:23:30;99961.38;;;20.58;75.12
4745;BME280;2386;42.138;24.746;2023-09-19T07:26:01;99951.47;;;20.57;75.00
4745;BME280;2386;42.138;24.746;2023-09-19T07:28:29;99945.63;;;20.64;75.01
4745;BME280;2386;42.138;24.746;2023-09-19T07:31:14;99956.41;;;20.89;84.82
4745;BME280;2386;42.138;24.746;2023-09-19T07:33:40;99956.00;;;21.30;87.75
4745;BME280;2386;42.138;24.746;2023-09-19T07:36:09;99956.31;;;21.52;82.17
4745;BME280;2386;42.138;24.746;2023-09-19T07:38:35;99953.09;;;21.64;78.16
4745;BME280;2386;42.138;24.746;2023-09-19T07:41:01;99944.00;;;21.82;77.96
4745;BME280;2386;42.138;24.746;2023-09-19T07:43:27;99943.28;;;21.95;72.53
4745;BME280;2386;42.138;24.746;2023-09-19T07:45:53;99940.28;;;21.92;70.67
4745;BME280;2386;42.138;24.746;2023-09-19T07:48:18;99938.13;;;21.89;69.10
4745;BME280;2386;42.138;24.746;2023-09-19T08:07:01;99909.03;;;22.80;69.23
4745;BME280;2386;42.138;24.746;2023-09-19T08:09:29;99907.44;;;22.93;68.20
4745;BME280;2386;42.138;24.746;2023-09-19T08:11:58;99905.38;;;22.99;63.98
4745;BME280;2386;42.138;24.746;2023-09-19T08:14:24;99906.19;;;23.13;67.06
4745;BME280;2386;42.138;24.746;2023-09-19T08:16:51;99897.38;;;23.11;63.61
4745;BME280;2386;42.138;24.746;2023-09-19T08:19:16;99896.75;;;23.14;65.74
4745;BME280;2386;42.138;24.746;2023-09-19T08:21:42;99902.72;;;23.35;64.33
4745;BME280;2386;42.138;24.746;2023-09-19T08:24:11;99893.25;;;23.49;65.06
4745;BME280;2386;42.138;24.746;2023-09-19T08:26:36;99901.06;;;23.61;62.37
4745;BME280;2386;42.138;24.746;2023-09-19T08:29:03;99896.53;;;23.51;62.87
4745;BME280;2386;42.138;24.746;2023-09-19T08:31:30;99895.34;;;23.57;61.81
4745;BME280;2386;42.138;24.746;2023-09-19T08:33:58;99891.84;;;23.66;63.99
4745;BME280;2386;42.138;24.746;2023-09-19T08:36:27;99876.47;;;23.59;60.02
4745;BME280;2386;42.138;24.746;2023-09-19T08:38:52;99879.50;;;23.72;62.35
4745;BME280;2386;42.138;24.746;2023-09-19T08:44:36;99862.00;;;23.85;63.68
4745;BME280;2386;42.138;24.746;2023-09-19T08:47:15;99876.63;;;23.99;60.00
4745;BME280;2386;42.138;24.746;2023-09-19T08:50:15;99867.81;;;23.97;59.11
4745;BME280;2386;42.138;24.746;2023-09-19T08:52:43;99870.47;;;24.02;55.54
4745;BME280;2386;42.138;24.746;2023-09-19T08:55:13;99880.59;;;24.07;54.34
4745;BME280;2386;42.138;24.746;2023-09-19T08:57:42;99868.31;;;23.99;55.10
4745;BME280;2386;42.138;24.746;2023-09-19T09:00:15;99866.06;;;24.01;54.91
4745;BME280;2386;42.138;24.746;2023-09-19T09:02:43;99870.38;;;23.93;54.93
4745;BME280;2386;42.138;24.746;2023-09-19T09:05:14;99873.66;;;23.96;55.14
4745;BME280;2386;42.138;24.746;2023-09-19T09:15:28;99846.63;;;23.79;53.03
4745;BME280;2386;42.138;24.746;2023-09-19T09:17:54;99845.56;;;23.88;54.26
4745;BME280;2386;42.138;24.746;2023-09-19T09:20:21;99839.59;;;23.95;54.27
4745;BME280;2386;42.138;24.746;2023-09-19T09:22:56;99841.22;;;23.96;55.22
4745;BME280;2386;42.138;24.746;2023-09-19T09:28:05;99836.56;;;24.05;54.77
4745;BME280;2386;42.138;24.746;2023-09-19T09:30:37;99846.41;;;24.11;54.12
4745;BME280;2386;42.138;24.746;2023-09-19T09:33:10;99829.59;;;24.08;53.89
4745;BME280;2386;42.138;24.746;2023-09-19T09:35:37;99835.69;;;24.18;53.29
4745;BME280;2386;42.138;24.746;2023-09-19T09:38:06;99822.66;;;24.19;53.06
4745;BME280;2386;42.138;24.746;2023-09-19T09:40:50;99820.97;;;24.32;52.71
4745;BME280;2386;42.138;24.746;2023-09-19T09:43:35;99823.03;;;24.48;53.13
4745;BME280;2386;42.138;24.746;2023-09-19T09:51:45;99799.28;;;24.73;51.12
4745;BME280;2386;42.138;24.746;2023-09-19T09:54:23;99805.72;;;24.91;50.90
4745;BME280;2386;42.138;24.746;2023-09-19T09:57:08;99804.75;;;24.96;50.70
4745;BME280;2386;42.138;24.746;2023-09-19T09:59:55;99796.31;;;25.01;51.28
4745;BME280;2386;42.138;24.746;2023-09-19T10:02:26;99791.25;;;25.03;51.69
4745;BME280;2386;42.138;24.746;2023-09-19T10:04:59;99782.25;;;24.97;52.55
4745;BME280;2386;42.138;24.746;2023-09-19T10:07:45;99794.81;;;24.95;52.11
4745;BME280;2386;42.138;24.746;2023-09-19T10:10:29;99798.53;;;24.90;51.77
4745;BME280;2386;42.138;24.746;2023-09-19T10:13:06;99784.28;;;24.74;50.60
4745;BME280;2386;42.138;24.746;2023-09-19T10:15:39;99788.50;;;24.72;50.98
4745;BME280;2386;42.138;24.746;2023-09-19T10:18:12;99778.72;;;24.74;51.02
4745;BME280;2386;42.138;24.746;2023-09-19T10:20:44;99780.38;;;24.75;50.92
4745;BME280;2386;42.138;24.746;2023-09-19T10:23:11;99801.13;;;24.86;50.67
4745;BME280;2386;42.138;24.746;2023-09-19T10:25:41;99784.22;;;24.97;50.64
4745;BME280;2386;42.138;24.746;2023-09-19T10:28:08;99781.31;;;25.02;50.46
4745;BME280;2386;42.138;24.746;2023-09-19T10:30:48;99782.31;;;25.14;50.33
4745;BME280;2386;42.138;24.746;2023-09-19T10:33:16;99775.63;;;25.24;50.26
4745;BME280;2386;42.138;24.746;2023-09-19T10:35:43;99761.56;;;25.29;49.97
4745;BME280;2386;42.138;24.746;2023-09-19T10:38:11;99763.53;;;25.37;49.80
4745;BME280;2386;42.138;24.746;2023-09-19T10:40:38;99765.16;;;25.38;49.39
4745;BME280;2386;42.138;24.746;2023-09-19T10:43:11;99755.53;;;25.44;48.88
4745;BME280;2386;42.138;24.746;2023-09-19T10:45:38;99747.19;;;25.44;48.20
4745;BME280;2386;42.138;24.746;2023-09-19T10:48:11;99745.25;;;25.53;48.35
4745;BME280;2386;42.138;24.746;2023-09-19T10:50:48;99735.59;;;25.60;48.51
4745;BME280;2386;42.138;24.746;2023-09-19T10:53:16;99728.25;;;25.64;48.86
4745;BME280;2386;42.138;24.746;2023-09-19T10:55:50;99733.66;;;25.69;48.25
4745;BME280;2386;42.138;24.746;2023-09-19T10:58:37;99731.69;;;25.78;48.66
4745;BME280;2386;42.138;24.746;2023-09-19T11:01:05;99729.88;;;25.82;48.31
4745;BME280;2386;42.138;24.746;2023-09-19T11:03:32;99734.13;;;25.88;48.20
4745;BME280;2386;42.138;24.746;2023-09-19T11:08:59;99721.97;;;26.01;47.79
4745;BME280;2386;42.138;24.746;2023-09-19T11:11:40;99720.66;;;26.07;48.36
4745;BME280;2386;42.138;24.746;2023-09-19T11:30:33;99698.88;;;26.85;46.11
4745;BME280;2386;42.138;24.746;2023-09-19T11:33:27;99688.81;;;27.02;45.33
4745;BME280;2386;42.138;24.746;2023-09-19T11:41:38;99676.84;;;27.43;44.00
4745;BME280;2386;42.138;24.746;2023-09-19T11:49:19;99663.63;;;27.85;44.61
4745;BME280;2386;42.138;24.746;2023-09-19T11:51:50;99660.41;;;27.95;43.34
4745;BME280;2386;42.138;24.746;2023-09-19T11:54:17;99655.78;;;27.99;41.68
4745;BME280;2386;42.138;24.746;2023-09-19T11:56:53;99662.06;;;28.08;44.32
4745;BME280;2386;42.138;24.746;2023-09-19T11:59:27;99651.59;;;28.05;41.01
4745;BME280;2386;42.138;24.746;2023-09-19T12:02:06;99645.44;;;28.12;41.53
4745;BME280;2386;42.138;24.746;2023-09-19T12:04:42;99641.28;;;28.18;42.45
4745;BME280;2386;42.138;24.746;2023-09-19T12:07:12;99641.97;;;28.15;41.05
4745;BME280;2386;42.138;24.746;2023-09-19T12:09:44;99636.50;;;28.19;42.19
4745;BME280;2386;42.138;24.746;2023-09-19T12:12:23;99637.78;;;28.09;40.45
4745;BME280;2386;42.138;24.746;2023-09-19T12:14:50;99630.22;;;28.09;40.13
4745;BME280;2386;42.138;24.746;2023-09-19T12:17:16;99625.56;;;28.13;39.80
4745;BME280;2386;42.138;24.746;2023-09-19T12:19:55;99622.78;;;28.26;39.89
4745;BME280;2386;42.138;24.746;2023-09-19T12:22:20;99626.63;;;28.33;40.90
4745;BME280;2386;42.138;24.746;2023-09-19T12:24:46;99630.00;;;28.27;39.44
4745;BME280;2386;42.138;24.746;2023-09-19T12:27:12;99621.63;;;28.27;40.24
4745;BME280;2386;42.138;24.746;2023-09-19T12:29:48;99627.22;;;28.27;39.02
4745;BME280;2386;42.138;24.746;2023-09-19T12:32:14;99628.84;;;28.28;41.27
4745;BME280;2386;42.138;24.746;2023-09-19T12:34:42;99627.91;;;28.36;42.32
4745;BME280;2386;42.138;24.746;2023-09-19T12:37:15;99629.88;;;28.48;42.07
4745;BME280;2386;42.138;24.746;2023-09-19T12:39:49;99618.34;;;28.86;42.16
4745;BME280;2386;42.138;24.746;2023-09-19T12:42:20;99614.97;;;29.48;41.67
4745;BME280;2386;42.138;24.746;2023-09-19T12:44:51;99612.22;;;30.43;41.35
4745;BME280;2386;42.138;24.746;2023-09-19T12:47:22;99613.41;;;32.19;34.18
4745;BME280;2386;42.138;24.746;2023-09-19T12:50:11;99613.88;;;34.08;30.58
4745;BME280;2386;42.138;24.746;2023-09-19T12:52:48;99613.38;;;35.12;29.69
4745;BME280;2386;42.138;24.746;2023-09-19T12:55:30;99620.91;;;36.02;27.51
4745;BME280;2386;42.138;24.746;2023-09-19T12:58:13;99608.19;;;37.27;26.22
4745;BME280;2386;42.138;24.746;2023-09-19T13:00:44;99616.84;;;37.79;26.44
4745;BME280;2386;42.138;24.746;2023-09-19T13:08:21;99596.63;;;36.86;27.96
4745;BME280;2386;42.138;24.746;2023-09-19T13:11:10;99593.50;;;36.34;29.12
4745;BME280;2386;42.138;24.746;2023-09-19T13:13:40;99605.06;;;35.44;29.28
4745;BME280;2386;42.138;24.746;2023-09-19T13:16:07;99596.84;;;35.10;29.29
4745;BME280;2386;42.138;24.746;2023-09-19T13:18:54;99597.97;;;34.91;29.73
4745;BME280;2386;42.138;24.746;2023-09-19T13:21:30;99603.22;;;34.93;29.39
4745;BME280;2386;42.138;24.746;2023-09-19T13:24:19;99602.28;;;35.72;27.37
4745;BME280;2386;42.138;24.746;2023-09-19T13:26:45;99582.09;;;36.77;25.49
4745;BME280;2386;42.138;24.746;2023-09-19T13:29:11;99597.53;;;37.56;24.81
4745;BME280;2386;42.138;24.746;2023-09-19T13:31:36;99593.97;;;38.52;24.41
4745;BME280;2386;42.138;24.746;2023-09-19T13:34:06;99604.66;;;40.00;23.81
4745;BME280;2386;42.138;24.746;2023-09-19T13:36:32;99590.38;;;40.51;22.06
4745;BME280;2386;42.138;24.746;2023-09-19T13:38:57;99594.81;;;40.95;21.34
4745;BME280;2386;42.138;24.746;2023-09-19T13:41:24;99581.22;;;39.93;22.26
4745;BME280;2386;42.138;24.746;2023-09-19T13:43:49;99571.97;;;38.22;23.45
4745;BME280;2386;42.138;24.746;2023-09-19T13:46:15;99580.31;;;37.18;24.54
4745;BME280;2386;42.138;24.746;2023-09-19T13:48:42;99577.72;;;35.98;26.42
4745;BME280;2386;42.138;24.746;2023-09-19T13:51:08;99557.59;;;34.73;27.69
4745;BME280;2386;42.138;24.746;2023-09-19T13:53:33;99560.56;;;33.81;29.49
4745;BME280;2386;42.138;24.746;2023-09-19T13:55:59;99555.63;;;33.01;31.02
4745;BME280;2386;42.138;24.746;2023-09-19T13:58:24;99537.56;;;32.15;31.86
4745;BME280;2386;42.138;24.746;2023-09-19T14:00:50;99541.97;;;31.67;32.54
4745;BME280;2386;42.138;24.746;2023-09-19T14:03:16;99542.72;;;31.22;33.71
4745;BME280;2386;42.138;24.746;2023-09-19T14:05:41;99541.78;;;30.76;35.28
4745;BME280;2386;42.138;24.746;2023-09-19T14:08:07;99536.56;;;30.39;36.00
4745;BME280;2386;42.138;24.746;2023-09-19T14:10:33;99540.59;;;30.06;36.48
4745;BME280;2386;42.138;24.746;2023-09-19T14:13:00;99529.22;;;29.68;37.14
4745;BME280;2386;42.138;24.746;2023-09-19T14:15:26;99537.41;;;29.45;37.55
4745;BME280;2386;42.138;24.746;2023-09-19T14:17:57;99539.97;;;29.22;38.06
4745;BME280;2386;42.138;24.746;2023-09-19T14:20:24;99535.38;;;28.86;38.59
4745;BME280;2386;42.138;24.746;2023-09-19T14:22:52;99533.72;;;28.45;38.22
4745;BME280;2386;42.138;24.746;2023-09-19T14:25:17;99536.03;;;28.43;38.92
4745;BME280;2386;42.138;24.746;2023-09-19T14:27:43;99520.94;;;28.32;39.39
4745;BME280;2386;42.138;24.746;2023-09-19T14:30:08;99532.44;;;28.30;39.99
4745;BME280;2386;42.138;24.746;2023-09-19T14:32:34;99527.25;;;28.04;38.90
4745;BME280;2386;42.138;24.746;2023-09-19T14:35:01;99534.78;;;28.04;39.56
4745;BME280;2386;42.138;24.746;2023-09-19T14:37:26;99541.66;;;27.94;39.43
4745;BME280;2386;42.138;24.746;2023-09-19T14:39:53;99542.81;;;27.81;39.90
4745;BME280;2386;42.138;24.746;2023-09-19T14:42:18;99529.34;;;27.83;40.44
4745;BME280;2386;42.138;24.746;2023-09-19T14:44:43;99530.03;;;27.80;39.59
4745;BME280;2386;42.138;24.746;2023-09-19T14:47:09;99531.19;;;27.79;40.42
4745;BME280;2386;42.138;24.746;2023-09-19T14:49:38;99525.38;;;27.84;41.12
4745;BME280;2386;42.138;24.746;2023-09-19T14:52:07;99527.81;;;27.86;41.30
4745;BME280;2386;42.138;24.746;2023-09-19T14:54:33;99522.34;;;27.65;40.77
4745;BME280;2386;42.138;24.746;2023-09-19T14:56:59;99528.28;;;27.75;41.89
4745;BME280;2386;42.138;24.746;2023-09-19T14:59:31;99521.78;;;27.71;42.15
4745;BME280;2386;42.138;24.746;2023-09-19T15:01:57;99537.81;;;27.74;42.09
4745;BME280;2386;42.138;24.746;2023-09-19T15:04:23;99532.34;;;27.66;42.78
4745;BME280;2386;42.138;24.746;2023-09-19T15:06:49;99533.84;;;27.63;42.78
4745;BME280;2386;42.138;24.746;2023-09-19T15:09:14;99534.38;;;27.57;42.47
4745;BME280;2386;42.138;24.746;2023-09-19T15:11:40;99539.59;;;27.58;43.37
4745;BME280;2386;42.138;24.746;2023-09-19T15:14:06;99530.66;;;27.53;43.92
4745;BME280;2386;42.138;24.746;2023-09-19T15:16:31;99529.84;;;27.52;44.42
4745;BME280;2386;42.138;24.746;2023-09-19T15:18:57;99537.75;;;27.50;43.89
4745;BME280;2386;42.138;24.746;2023-09-19T15:21:23;99526.84;;;27.45;44.74
4745;BME280;2386;42.138;24.746;2023-09-19T15:23:49;99529.03;;;27.39;44.53
4745;BME280;2386;42.138;24.746;2023-09-19T15:26:15;99545.28;;;27.37;44.62
4745;BME280;2386;42.138;24.746;2023-09-19T15:28:47;99537.97;;;27.33;44.88
4745;BME280;2386;42.138;24.746;2023-09-19T15:31:14;99528.75;;;27.20;45.30
4745;BME280;2386;42.138;24.746;2023-09-19T15:33:40;99532.69;;;27.19;45.37
4745;BME280;2386;42.138;24.746;2023-09-19T15:36:06;99547.09;;;27.21;44.80
4745;BME280;2386;42.138;24.746;2023-09-19T15:38:55;99541.47;;;27.09;46.00
4745;BME280;2386;42.138;24.746;2023-09-19T15:41:32;99543.19;;;27.01;46.12
4745;BME280;2386;42.138;24.746;2023-09-19T15:43:59;99543.06;;;26.98;45.98
4745;BME280;2386;42.138;24.746;2023-09-19T15:46:30;99550.63;;;26.89;46.36
4745;BME280;2386;42.138;24.746;2023-09-19T15:48:57;99543.19;;;26.80;46.15
4745;BME280;2386;42.138;24.746;2023-09-19T15:51:23;99539.34;;;26.73;46.73
4745;BME280;2386;42.138;24.746;2023-09-19T15:53:51;99543.63;;;26.70;46.80
4745;BME280;2386;42.138;24.746;2023-09-19T15:56:17;99544.63;;;26.66;47.38
4745;BME280;2386;42.138;24.746;2023-09-19T15:58:47;99545.66;;;26.61;47.46
4745;BME280;2386;42.138;24.746;2023-09-19T16:01:14;99548.28;;;26.58;47.42
4745;BME280;2386;42.138;24.746;2023-09-19T16:03:46;99539.34;;;26.52;47.84
4745;BME280;2386;42.138;24.746;2023-09-19T16:06:14;99542.78;;;26.49;47.99
4745;BME280;2386;42.138;24.746;2023-09-19T16:08:44;99541.84;;;26.45;47.97
4745;BME280;2386;42.138;24.746;2023-09-19T16:11:10;99537.28;;;26.40;48.25
4745;BME280;2386;42.138;24.746;2023-09-19T16:13:39;99542.72;;;26.37;48.07
4745;BME280;2386;42.138;24.746;2023-09-19T16:16:05;99544.53;;;26.33;48.50
4745;BME280;2386;42.138;24.746;2023-09-19T16:18:31;99534.94;;;26.22;48.62
4745;BME280;2386;42.138;24.746;2023-09-19T16:21:06;99538.84;;;26.20;48.72
4745;BME280;2386;42.138;24.746;2023-09-19T16:23:36;99538.25;;;26.15;48.22
4745;BME280;2386;42.138;24.746;2023-09-19T16:26:06;99536.47;;;26.10;48.64
4745;BME280;2386;42.138;24.746;2023-09-19T16:28:32;99542.56;;;26.04;48.42
4745;BME280;2386;42.138;24.746;2023-09-19T16:31:02;99540.81;;;25.99;48.58
4745;BME280;2386;42.138;24.746;2023-09-19T16:33:34;99530.22;;;25.93;48.95
4745;BME280;2386;42.138;24.746;2023-09-19T16:36:02;99528.44;;;25.88;49.39
4745;BME280;2386;42.138;24.746;2023-09-19T16:38:28;99530.25;;;25.84;49.10
4745;BME280;2386;42.138;24.746;2023-09-19T16:40:58;99534.22;;;25.74;49.87
4745;BME280;2386;42.138;24.746;2023-09-19T16:43:25;99546.00;;;25.71;50.36
4745;BME280;2386;42.138;24.746;2023-09-19T16:45:52;99542.06;;;25.64;50.91
4745;BME280;2386;42.138;24.746;2023-09-19T16:48:20;99542.75;;;25.61;51.94
4745;BME280;2386;42.138;24.746;2023-09-19T16:50:45;99540.81;;;25.52;52.38
4745;BME280;2386;42.138;24.746;2023-09-19T16:53:11;99544.44;;;25.44;52.09
4745;BME280;2386;42.138;24.746;2023-09-19T16:55:37;99549.50;;;25.42;52.32
4745;BME280;2386;42.138;24.746;2023-09-19T16:58:03;99558.16;;;25.41;52.55
4745;BME280;2386;42.138;24.746;2023-09-19T17:00:30;99554.59;;;25.32;52.72
4745;BME280;2386;42.138;24.746;2023-09-19T17:02:56;99562.44;;;25.30;52.29
4745;BME280;2386;42.138;24.746;2023-09-19T17:05:22;99564.75;;;25.19;52.82
4745;BME280;2386;42.138;24.746;2023-09-19T17:07:47;99563.78;;;25.15;53.36
4745;BME280;2386;42.138;24.746;2023-09-19T17:10:13;99567.72;;;25.05;54.07
4745;BME280;2386;42.138;24.746;2023-09-19T17:12:38;99561.53;;;25.00;54.63
4745;BME280;2386;42.138;24.746;2023-09-19T17:15:04;99576.19;;;24.92;55.24
4745;BME280;2386;42.138;24.746;2023-09-19T17:17:30;99561.97;;;24.84;55.58
4745;BME280;2386;42.138;24.746;2023-09-19T17:19:56;99580.25;;;24.85;56.03
4745;BME280;2386;42.138;24.746;2023-09-19T17:22:21;99577.66;;;24.80;56.29
4745;BME280;2386;42.138;24.746;2023-09-19T17:24:47;99579.78;;;24.75;56.77
4745;BME280;2386;42.138;24.746;2023-09-19T17:27:12;99581.72;;;24.66;56.90
4745;BME280;2386;42.138;24.746;2023-09-19T17:29:37;99587.28;;;24.66;57.84
4745;BME280;2386;42.138;24.746;2023-09-19T17:32:03;99595.75;;;24.61;58.31
4745;BME280;2386;42.138;24.746;2023-09-19T17:34:30;99593.78;;;24.52;58.84
4745;BME280;2386;42.138;24.746;2023-09-19T17:36:56;99595.28;;;24.50;59.32
4745;BME280;2386;42.138;24.746;2023-09-19T17:39:23;99596.56;;;24.44;59.06
4745;BME280;2386;42.138;24.746;2023-09-19T17:41:49;99601.94;;;24.40;59.69
4745;BME280;2386;42.138;24.746;2023-09-19T17:44:14;99599.00;;;24.37;59.74
4745;BME280;2386;42.138;24.746;2023-09-19T17:46:39;99608.78;;;24.34;59.80
4745;BME280;2386;42.138;24.746;2023-09-19T17:49:05;99605.13;;;24.25;60.10
4745;BME280;2386;42.138;24.746;2023-09-19T17:51:31;99610.66;;;24.25;60.41
4745;BME280;2386;42.138;24.746;2023-09-19T17:53:56;99601.03;;;24.22;60.72
4745;BME280;2386;42.138;24.746;2023-09-19T17:56:24;99601.25;;;24.26;60.99
4745;BME280;2386;42.138;24.746;2023-09-19T17:58:49;99603.00;;;24.22;61.46
4745;BME280;2386;42.138;24.746;2023-09-19T18:01:20;99596.78;;;24.16;61.94
4745;BME280;2386;42.138;24.746;2023-09-19T18:03:47;99606.88;;;24.12;61.46
4745;BME280;2386;42.138;24.746;2023-09-19T18:06:14;99606.06;;;24.12;61.75
4745;BME280;2386;42.138;24.746;2023-09-19T18:08:41;99608.66;;;24.08;62.23